createdAt,value
2018-05-26T00:01:24.004Z,19.20
2018-05-26T00:05:26.527Z,19.10
2018-05-26T00:09:29.061Z,19.00
2018-05-26T00:13:31.587Z,19.00
2018-05-26T00:17:34.123Z,18.90
2018-05-26T00:21:36.635Z,18.80
2018-05-26T00:25:39.160Z,18.70
2018-05-26T00:29:42.595Z,18.60
2018-05-26T00:33:45.141Z,18.50
2018-05-26T00:37:48.457Z,18.50
2018-05-26T00:41:51.764Z,18.40
2018-05-26T00:45:55.046Z,18.30
2018-05-26T00:49:57.575Z,18.20
2018-05-26T00:54:00.868Z,18.10
2018-05-26T00:58:03.405Z,18.00
2018-05-26T01:02:05.931Z,18.00
2018-05-26T01:06:08.443Z,18.00
2018-05-26T01:10:10.989Z,17.80
2018-05-26T01:14:14.283Z,17.70
2018-05-26T01:18:17.580Z,17.60
2018-05-26T01:22:20.103Z,17.50
2018-05-26T01:26:22.626Z,17.50
2018-05-26T01:30:25.141Z,17.40
2018-05-26T01:34:28.435Z,17.30
2018-05-26T01:38:31.734Z,17.30
2018-05-26T01:42:34.262Z,17.20
2018-05-26T01:46:36.794Z,17.20
2018-05-26T01:50:39.295Z,17.20
2018-05-26T01:54:42.588Z,17.00
2018-05-26T01:58:45.120Z,17.00
2018-05-26T02:02:47.647Z,17.00
2018-05-26T02:06:50.175Z,16.90
2018-05-26T02:10:52.687Z,16.90
2018-05-26T02:14:55.222Z,16.80
2018-05-26T02:18:58.516Z,16.70
2018-05-26T02:23:01.066Z,16.60
2018-05-26T02:27:03.607Z,16.60
2018-05-26T02:31:06.120Z,16.60
2018-05-26T02:35:08.647Z,16.50
2018-05-26T02:39:11.175Z,16.40
2018-05-26T02:43:13.702Z,16.40
2018-05-26T02:47:16.267Z,16.30
2018-05-26T02:51:18.773Z,16.20
2018-05-26T02:55:21.308Z,16.20
2018-05-26T02:59:23.840Z,16.10
2018-05-26T03:03:26.367Z,16.10
2018-05-26T03:07:35.267Z,16.00
2018-05-26T03:11:43.396Z,15.90
2018-05-26T03:16:03.618Z,15.90
2018-05-26T03:20:06.143Z,15.90
2018-05-26T03:24:08.680Z,15.80
2018-05-26T03:28:11.987Z,15.70
2018-05-26T03:32:15.259Z,15.60
2018-05-26T03:36:17.792Z,15.60
2018-05-26T03:40:20.327Z,15.60
2018-05-26T03:44:22.851Z,15.50
2018-05-26T03:48:25.384Z,15.50
2018-05-26T03:52:27.894Z,15.40
2018-05-26T03:56:42.139Z,15.40
2018-05-26T04:00:44.669Z,15.30
2018-05-26T04:04:47.195Z,15.30
2018-05-26T04:08:50.550Z,15.20
2018-05-26T04:12:53.066Z,15.20
2018-05-26T04:16:55.592Z,15.20
2018-05-26T04:20:58.114Z,15.20
2018-05-26T04:25:00.639Z,15.20
2018-05-26T04:29:03.164Z,15.20
2018-05-26T04:33:06.464Z,15.20
2018-05-26T04:37:09.756Z,15.20
2018-05-26T04:41:13.054Z,15.20
2018-05-26T04:45:16.353Z,15.30
2018-05-26T04:49:18.885Z,15.20
2018-05-26T04:53:21.424Z,15.30
2018-05-26T04:57:23.931Z,15.40
2018-05-26T05:01:27.233Z,15.50
2018-05-26T05:05:30.555Z,15.50
2018-05-26T05:09:33.087Z,15.50
2018-05-26T05:13:35.611Z,15.60
2018-05-26T05:17:38.115Z,15.60
2018-05-26T05:21:40.644Z,15.70
2018-05-26T05:25:43.187Z,15.80
2018-05-26T05:29:45.711Z,15.90
2018-05-26T05:33:48.241Z,16.00
2018-05-26T05:37:50.749Z,16.00
2018-05-26T05:41:53.278Z,16.10
2018-05-26T05:45:55.834Z,16.20
2018-05-26T05:49:58.358Z,16.30
2018-05-26T05:54:01.657Z,16.50
2018-05-26T05:58:04.958Z,16.60
2018-05-26T06:02:07.482Z,16.50
2018-05-26T06:06:10.025Z,16.70
2018-05-26T06:10:12.555Z,16.80
2018-05-26T06:14:15.103Z,16.90
2018-05-26T06:18:18.376Z,17.10
2018-05-26T06:22:20.908Z,17.10
2018-05-26T06:26:23.483Z,17.20
2018-05-26T06:30:25.995Z,17.30
2018-05-26T06:34:28.532Z,17.40
2018-05-26T06:38:31.038Z,17.60
2018-05-26T06:42:34.331Z,17.80
2018-05-26T06:46:37.619Z,17.90
2018-05-26T06:50:40.155Z,17.90
2018-05-26T06:54:42.687Z,18.00
2018-05-26T06:58:45.205Z,18.20
2018-05-26T07:02:47.734Z,18.30
2018-05-26T07:06:50.268Z,18.40
2018-05-26T07:10:53.570Z,18.70
2018-05-26T07:14:56.867Z,18.90
2018-05-26T07:19:00.138Z,19.00
2018-05-26T07:23:02.676Z,19.00
2018-05-26T07:27:05.266Z,19.10
2018-05-26T07:31:08.535Z,19.40
2018-05-26T07:35:11.838Z,19.60
2018-05-26T07:39:14.347Z,19.50
2018-05-26T07:43:16.883Z,19.70
2018-05-26T07:47:19.485Z,19.90
2018-05-26T07:51:22.747Z,20.20
2018-05-26T07:55:25.343Z,20.20
2018-05-26T07:59:27.856Z,20.40
2018-05-26T08:03:30.398Z,20.50
2018-05-26T08:07:32.919Z,20.70
2018-05-26T08:11:35.446Z,20.90
2018-05-26T08:15:37.980Z,21.00
2018-05-26T08:19:40.494Z,21.20
2018-05-26T08:23:43.786Z,21.60
2018-05-26T08:27:47.083Z,21.80
2018-05-26T08:31:49.987Z,21.70
2018-05-26T08:35:53.299Z,22.10
2018-05-26T08:39:56.579Z,22.30
2018-05-26T08:44:03.450Z,22.30
2018-05-26T08:48:05.993Z,22.50
2018-05-26T08:52:08.527Z,22.70
2018-05-26T08:56:11.848Z,23.20
2018-05-26T09:00:15.132Z,23.40
2018-05-26T09:04:17.666Z,23.30
2018-05-26T09:08:20.225Z,23.60
2018-05-26T09:12:23.544Z,24.20
2018-05-26T09:16:26.084Z,24.10
2018-05-26T09:20:28.600Z,24.50
2018-05-26T09:24:31.922Z,25.00
2018-05-26T09:28:34.454Z,25.00
2018-05-26T09:32:37.000Z,25.40
2018-05-26T09:36:39.546Z,25.60
2018-05-26T09:40:42.830Z,26.20
2018-05-26T09:44:45.371Z,26.10
2018-05-26T09:48:47.915Z,26.40
2018-05-26T09:52:50.467Z,26.70
2018-05-26T09:56:52.995Z,27.00
2018-05-26T10:00:56.310Z,27.50
2018-05-26T10:04:59.592Z,27.70
2018-05-26T10:09:02.896Z,27.90
2018-05-26T10:13:06.206Z,28.20
2018-05-26T10:17:10.483Z,28.40
2018-05-26T10:21:13.840Z,28.60
2018-05-26T10:25:17.118Z,28.80
2018-05-26T10:29:19.674Z,28.70
2018-05-26T10:33:22.211Z,29.00
2018-05-26T10:37:25.506Z,29.30
2018-05-26T10:41:28.803Z,29.40
2018-05-26T10:45:38.758Z,29.30
2018-05-26T10:49:41.287Z,29.50
2018-05-26T10:53:44.585Z,29.90
2018-05-26T10:57:47.119Z,29.90
2018-05-26T11:01:49.647Z,30.10
2018-05-26T11:05:52.156Z,30.30
2018-05-26T11:09:54.703Z,30.50
2018-05-26T11:13:58.013Z,30.70
2018-05-26T11:18:00.869Z,30.70
2018-05-26T11:22:04.393Z,31.00
2018-05-26T11:26:07.019Z,30.90
2018-05-26T11:30:09.837Z,31.10
2018-05-26T11:34:13.174Z,31.20
2018-05-26T11:38:16.725Z,31.50
2018-05-26T11:42:19.863Z,31.40
2018-05-26T11:46:22.791Z,31.60
2018-05-26T11:50:26.232Z,31.70
2018-05-26T11:54:29.534Z,31.90
2018-05-26T11:58:32.541Z,31.80
2018-05-26T12:02:35.341Z,31.90
2018-05-26T12:06:38.444Z,32.00
2018-05-26T12:10:41.453Z,32.10
2018-05-26T12:14:46.123Z,32.30
2018-05-26T12:18:49.066Z,32.30
2018-05-26T12:22:51.745Z,32.40
2018-05-26T12:26:54.533Z,32.60
2018-05-26T12:30:57.170Z,32.70
2018-05-26T12:35:01.720Z,32.80
2018-05-26T12:39:04.263Z,32.80
2018-05-26T12:43:06.800Z,32.90
2018-05-26T12:47:09.348Z,32.90
2018-05-26T12:51:12.641Z,33.10
2018-05-26T12:55:15.357Z,33.00
2018-05-26T12:59:17.901Z,33.20
2018-05-26T13:03:20.473Z,33.30
2018-05-26T13:07:23.843Z,33.50
2018-05-26T13:11:26.359Z,33.40
2018-05-26T13:15:28.886Z,33.60
2018-05-26T13:19:32.197Z,33.70
2018-05-26T13:23:35.496Z,33.70
2018-05-26T13:27:44.487Z,33.60
2018-05-26T13:31:47.931Z,33.60
2018-05-26T13:35:51.379Z,33.60
2018-05-26T13:39:53.919Z,33.50
2018-05-26T13:43:56.447Z,33.70
2018-05-26T13:48:00.512Z,33.70
2018-05-26T13:52:03.899Z,33.70
2018-05-26T13:56:06.456Z,33.60
2018-05-26T14:00:08.991Z,33.60
2018-05-26T14:04:11.547Z,33.50
2018-05-26T14:08:14.847Z,33.50
2018-05-26T14:12:17.378Z,33.50
2018-05-26T14:16:20.657Z,33.50
2018-05-26T14:20:23.239Z,33.40
2018-05-26T14:24:25.775Z,33.40
2018-05-26T14:28:28.302Z,33.40
2018-05-26T14:32:30.861Z,33.40
2018-05-26T14:36:33.379Z,33.40
2018-05-26T14:40:35.911Z,33.40
2018-05-26T14:44:39.027Z,33.30
2018-05-26T14:48:41.563Z,33.30
2018-05-26T14:52:44.106Z,33.30
2018-05-26T14:56:46.625Z,33.40
2018-05-26T15:00:49.163Z,33.40
2018-05-26T15:04:51.711Z,33.40
2018-05-26T15:08:55.014Z,33.40
2018-05-26T15:12:58.395Z,33.40
2018-05-26T15:17:00.866Z,33.40
2018-05-26T15:21:03.399Z,33.40
2018-05-26T15:25:06.712Z,33.40
2018-05-26T15:29:09.259Z,33.30
2018-05-26T15:33:11.931Z,33.40
2018-05-26T15:37:14.453Z,33.50
2018-05-26T15:41:17.748Z,33.70
2018-05-26T15:45:21.054Z,33.90
2018-05-26T15:49:23.606Z,33.80
2018-05-26T15:53:26.146Z,34.10
2018-05-26T15:57:28.691Z,34.30
2018-05-26T16:01:31.214Z,34.40
2018-05-26T16:05:33.751Z,34.60
2018-05-26T16:09:36.295Z,34.70
2018-05-26T16:13:38.823Z,34.80
2018-05-26T16:17:41.352Z,35.10
2018-05-26T16:21:43.859Z,35.20
2018-05-26T16:25:46.395Z,35.20
2018-05-26T16:29:49.699Z,35.10
2018-05-26T16:33:52.991Z,35.00
2018-05-26T16:37:55.518Z,34.90
2018-05-26T16:41:58.034Z,34.80
2018-05-26T16:46:00.570Z,34.70
2018-05-26T16:50:03.863Z,34.40
2018-05-26T16:54:07.163Z,34.20
2018-05-26T16:58:10.471Z,34.00
2018-05-26T17:02:13.758Z,33.80
2018-05-26T17:06:16.291Z,33.80
2018-05-26T17:10:18.832Z,33.60
2018-05-26T17:14:22.143Z,33.20
2018-05-26T17:18:25.448Z,32.90
2018-05-26T17:22:28.760Z,32.80
2018-05-26T17:26:32.063Z,32.50
2018-05-26T17:30:34.603Z,32.50
2018-05-26T17:34:37.139Z,32.40
2018-05-26T17:38:39.672Z,32.10
2018-05-26T17:42:42.198Z,31.90
2018-05-26T17:46:45.558Z,31.40
2018-05-26T17:50:48.090Z,31.30
2018-05-26T17:54:50.750Z,31.20
2018-05-26T17:58:53.278Z,31.00
2018-05-26T18:02:55.791Z,30.70
2018-05-26T18:06:58.323Z,30.50
2018-05-26T18:11:01.619Z,30.10
2018-05-26T18:15:04.989Z,29.80
2018-05-26T18:19:07.535Z,29.80
2018-05-26T18:23:10.075Z,29.70
2018-05-26T18:27:12.594Z,29.40
2018-05-26T18:31:15.135Z,29.30
2018-05-26T18:35:17.713Z,29.00
2018-05-26T18:39:20.259Z,28.90
2018-05-26T18:43:22.810Z,28.70
2018-05-26T18:47:25.330Z,28.50
2018-05-26T18:51:27.861Z,28.30
2018-05-26T18:55:30.402Z,28.10
2018-05-26T18:59:32.943Z,27.90
2018-05-26T19:03:35.479Z,27.70
2018-05-26T19:07:42.327Z,27.50
2018-05-26T19:11:45.040Z,27.30
2018-05-26T19:15:47.596Z,27.20
2018-05-26T19:19:50.899Z,26.80
2018-05-26T19:23:53.430Z,26.70
2018-05-26T19:27:55.934Z,26.60
2018-05-26T19:31:58.463Z,26.50
2018-05-26T19:36:01.763Z,26.10
2018-05-26T19:40:05.066Z,25.90
2018-05-26T19:44:08.372Z,25.80
2018-05-26T19:48:11.659Z,25.60
2018-05-26T19:52:14.182Z,25.60
2018-05-26T19:56:16.723Z,25.50
2018-05-26T20:00:19.264Z,25.40
2018-05-26T20:04:21.794Z,25.30
2018-05-26T20:08:24.324Z,25.20
2018-05-26T20:12:26.852Z,25.10
2018-05-26T20:16:29.386Z,25.00
2018-05-26T20:20:35.512Z,24.90
2018-05-26T20:24:39.474Z,24.70
2018-05-26T20:28:41.991Z,24.60
2018-05-26T20:32:44.528Z,24.60
2018-05-26T20:36:47.838Z,24.40
2018-05-26T20:40:52.644Z,24.30
2018-05-26T20:44:55.191Z,24.30
2018-05-26T20:48:57.732Z,24.20
2018-05-26T20:53:01.007Z,24.00
2018-05-26T20:57:03.553Z,23.90
2018-05-26T21:01:07.512Z,23.90
2018-05-26T21:05:10.974Z,23.80
2018-05-26T21:09:13.585Z,23.80
2018-05-26T21:13:16.119Z,23.70
2018-05-26T21:17:19.706Z,23.60
2018-05-26T21:21:22.234Z,23.50
2018-05-26T21:25:24.767Z,23.50
2018-05-26T21:29:27.418Z,23.40
2018-05-26T21:33:29.958Z,23.30
2018-05-26T21:37:32.498Z,23.30
2018-05-26T21:41:35.036Z,23.10
2018-05-26T21:45:38.331Z,23.00
2018-05-26T21:49:40.859Z,22.90
2018-05-26T21:53:43.366Z,22.90
2018-05-26T21:57:45.902Z,22.80
2018-05-26T22:01:49.210Z,22.60
2018-05-26T22:05:51.791Z,22.50
2018-05-26T22:09:54.305Z,22.50
2018-05-26T22:13:56.818Z,22.40
2018-05-26T22:17:59.356Z,22.30
2018-05-26T22:22:01.891Z,22.20
2018-05-26T22:26:04.417Z,22.10
2018-05-26T22:30:06.949Z,22.00
2018-05-26T22:34:09.458Z,21.90
2018-05-26T22:38:11.983Z,21.80
2018-05-26T22:42:14.519Z,21.80
2018-05-26T22:46:17.047Z,21.70
2018-05-26T22:50:19.583Z,21.50
2018-05-26T22:54:22.100Z,21.50
2018-05-26T22:58:25.394Z,21.30
2018-05-26T23:02:28.690Z,21.20
2018-05-26T23:06:31.219Z,21.20
2018-05-26T23:10:33.751Z,21.10
2018-05-26T23:14:36.259Z,21.00
2018-05-26T23:18:39.557Z,20.90
2018-05-26T23:22:42.106Z,20.80
2018-05-26T23:26:44.650Z,20.70
2018-05-26T23:30:47.178Z,20.70
2018-05-26T23:34:49.718Z,20.50
2018-05-26T23:38:52.232Z,20.40
2018-05-26T23:42:54.763Z,20.30
2018-05-26T23:46:58.061Z,20.20
2018-05-26T23:51:00.586Z,20.10
2018-05-26T23:55:03.115Z,20.00
2018-05-26T23:59:05.626Z,19.90
